Portada
METAR-TAF:

METAR-TAF

Aeropuertos :

Yakutsk, Rusia

Aeropuerto de Yakutsk

latitud: 62-01N, longitud: 129-43E, altitud: 103 m

Observación

El informe se hizo hace 31 minutos, a las 12:30 UTC
Viento 2 kt del sur-suroeste
Temperatura -5°C
Humedad 79%
Presión 1016 hPa
Visibilidad 10 km o más
sin nubes por debajo de 1500 m y sin presencia de cumulonimbus.

METAR: UEEE 261230Z 21001MPS CAVOK M05/M08 Q1016 R23L/490150 NOSIG RMK QFE753

Hora: 22:01 (13:01 UTC)

Pronóstico

El informe se hizo hace 2 horas y 1 minutos, a las 11:00 UTC
Pronóstico válido del 26 a las 12 UTC al 27 a las 18 UTC
Viento 2 kt con dirección variable
Visibilidad 10 km o más
Nubes dispersas a una altura de 2000 ft, Cumulonimbus.
Cielo cubierto a una altura de 7000 ft
Temporalmente
del 26 a las 15 UTC al 27 a las 01 UTC
Visibilidad: 0300 m
a una altura de 300 ft
niebla engelante

TAF: UEEE 261100Z 2612/2718 VRB01MPS 9999 SCT020CB OVC070 TEMPO 2615/2701 0300 FZFG VV003

Observaciones y pronósticos meteorológicos de más de 4000 aeropuertos (mensajes METAR y TAF).

Los puntos amarillos y rojos representan las estaciones disponibles.

Ponga el ratón en el punto deseado para ver el nombre de la estación.

Haga clic para ver las observaciones y los pronósticos meteorológicos.

Para cambiar el mapa : haga clic en los botones verdes con una cruz de color negro para hacer un zoom, en el botón verde con un guión para alejar o en las flechas verdes para mapas adyacentes.


METAR-TAF: